Accueil
METAR-TAF:

METAR-TAF

Aéroports :

Aéroport international de Genève

Genève, Suisse

latitude: 46-15N, longitude: 006-08E, altitude: 420 m

Observation

Le bulletin a été fait il y a 32 minutes, à 09:20 UTC
Vent 4 kt de nord
Température 5°C
Humidité 70%
Pression 1020 hPa
Visibilité 10 km ou plus
Ciel couvert à une hauteur de 2300 ft

METAR: LSGG 180920Z 01004KT 9999 OVC023 05/00 Q1020 NOSIG

Heure: 10:52 (09:52 UTC)

Prévision

Le bulletin a été fait il y a 1 heure et 27 minutes, à 08:25 UTC
Prévision valable du 18 à 09 UTC au 19 à 15 UTC
Vent 8 kt de nord/nord-est
Visibilité 10 km ou plus
Nuages fragmentés à une hauteur de 2000 ft

TAF: LSGG 180825Z 1809/1915 03008KT 9999 BKN020 TX05/1814Z TN01/1906Z TX03/1914Z

Observations et prévisions météorologiques de plus de 4000 aéroports (messages METAR et TAF).

Les stations disponibles sont représentées par des disques jaunes et rouges sur la carte.

Passer la souris dessus pour voir le nom de la station.

Cliquer dessus pour voir les observations et prévisions météorologiques.

Pour changer de carte: cliquez sur les boutons verts avec une croix noire pour zoomer, sur le bouton vert avec un tiret pour effectuer un zoom arrière, ou sur les flèches vertes pour les cartes adjacentes.


METAR-TAF: